Time;durP1;ratioP1;P1;durP2;ratioP2;P2;SDS_P1;SDS_P2;PMS_P1;PMS_P2;Temp;Humidity;BMP_temperature;BMP_pressure;BME280_temperature;BME280_humidity;BME280_pressure;Samples;Min_cycle;Max_cycle;Signal;HPM_P1;HPM_P2
2022/03/06 00:00:31;;;;;;;14.90;11.18;;;2.10;99.90;;;;;;5041029;28;20562;-48
2022/03/06 00:02:58;;;;;;;15.68;11.30;;;2.20;99.90;;;;;;5040966;28;20217;-47
2022/03/06 00:05:25;;;;;;;21.58;12.43;;;2.20;99.90;;;;;;5041624;28;20562;-48
2022/03/06 00:07:55;;;;;;;17.80;9.50;;;2.30;99.90;;;;;;5041519;28;20196;-51
2022/03/06 00:10:22;;;;;;;21.17;12.02;;;2.50;99.90;;;;;;5041545;28;20319;-51
2022/03/06 00:12:49;;;;;;;15.77;10.32;;;2.20;99.90;;;;;;5039481;28;20535;-48
2022/03/06 00:15:18;;;;;;;13.75;9.00;;;2.10;99.90;;;;;;5041061;28;20431;-49
2022/03/06 00:17:45;;;;;;;14.15;8.55;;;2.10;99.90;;;;;;5040828;28;20208;-52
2022/03/06 00:20:12;;;;;;;17.25;10.02;;;2.20;99.90;;;;;;5041025;28;20208;-50
2022/03/06 00:22:39;;;;;;;15.30;8.93;;;2.20;99.90;;;;;;5040766;28;20236;-50
2022/03/06 00:25:07;;;;;;;14.85;9.32;;;2.00;99.90;;;;;;5040701;28;20267;-48
2022/03/06 00:27:34;;;;;;;15.63;9.90;;;2.00;99.90;;;;;;5040735;28;20228;-48
2022/03/06 00:30:02;;;;;;;17.98;12.20;;;1.80;99.90;;;;;;5040784;28;20200;-48
2022/03/06 00:32:29;;;;;;;20.05;13.60;;;1.60;99.90;;;;;;5040773;28;20220;-48
2022/03/06 00:34:56;;;;;;;19.27;13.70;;;1.70;99.90;;;;;;5040874;28;20263;-48
2022/03/06 00:37:23;;;;;;;22.23;13.38;;;1.60;99.90;;;;;;5040733;28;20238;-49
2022/03/06 00:39:50;;;;;;;11.90;9.27;;;1.70;99.90;;;;;;5040017;28;20222;-50
2022/03/06 00:42:18;;;;;;;16.15;10.60;;;1.60;99.90;;;;;;5040333;28;20546;-50
2022/03/06 00:44:45;;;;;;;12.55;10.95;;;1.80;99.90;;;;;;5039986;28;20201;-53
2022/03/06 00:47:12;;;;;;;15.60;11.25;;;1.60;99.90;;;;;;5040095;28;20278;-50
2022/03/06 00:49:39;;;;;;;14.45;11.13;;;1.60;99.90;;;;;;5040425;28;20226;-47
2022/03/06 00:52:06;;;;;;;24.50;13.18;;;1.70;99.90;;;;;;5040111;28;20216;-47
2022/03/06 00:54:33;;;;;;;18.98;10.32;;;1.70;99.90;;;;;;5040359;28;20239;-50
2022/03/06 00:57:00;;;;;;;20.15;12.07;;;1.90;99.90;;;;;;5040022;28;20200;-47
2022/03/06 00:59:33;;;;;;;20.33;12.43;;;2.00;99.90;;;;;;5040274;28;20200;-47
2022/03/06 01:02:01;;;;;;;17.50;12.60;;;1.80;99.90;;;;;;5039724;28;20254;-47
2022/03/06 01:04:29;;;;;;;19.10;12.40;;;1.70;99.90;;;;;;5040483;28;20208;-48
2022/03/06 01:06:56;;;;;;;23.50;13.43;;;1.80;99.90;;;;;;5039694;28;20224;-50
2022/03/06 01:09:23;;;;;;;23.08;14.05;;;2.00;99.90;;;;;;5039937;28;20197;-50
2022/03/06 01:11:51;;;;;;;16.02;11.48;;;1.80;99.90;;;;;;5039785;28;20578;-51
2022/03/06 01:14:18;;;;;;;18.20;13.02;;;1.70;99.90;;;;;;5039691;28;20250;-48
2022/03/06 01:16:46;;;;;;;21.85;13.85;;;1.70;99.90;;;;;;5039937;28;20199;-52
2022/03/06 01:19:13;;;;;;;22.20;13.38;;;1.60;99.90;;;;;;5039814;28;20204;-51
2022/03/06 01:21:40;;;;;;;26.48;13.98;;;1.50;99.90;;;;;;5039733;28;20220;-49
2022/03/06 01:24:07;;;;;;;22.25;12.40;;;1.50;99.90;;;;;;5039673;28;20461;-49
2022/03/06 01:26:36;;;;;;;19.10;12.55;;;1.60;99.90;;;;;;5039618;28;20266;-51
2022/03/06 01:29:04;;;;;;;19.98;11.73;;;1.80;99.90;;;;;;5040050;28;20199;-50
2022/03/06 01:31:31;;;;;;;20.77;14.43;;;1.90;99.90;;;;;;5054472;28;20195;-47
2022/03/06 01:33:58;;;;;;;34.15;16.77;;;1.80;99.90;;;;;;5059335;28;20233;-48
2022/03/06 01:36:26;;;;;;;28.55;17.17;;;1.90;99.90;;;;;;5059568;28;20474;-50
2022/03/06 01:38:53;;;;;;;39.92;19.85;;;2.00;99.90;;;;;;5059399;28;20199;-51
2022/03/06 01:41:20;;;;;;;38.22;18.70;;;1.80;99.90;;;;;;5058951;28;20269;-49
2022/03/06 01:43:47;;;;;;;31.92;20.80;;;1.80;99.90;;;;;;5059225;28;20203;-51
2022/03/06 01:46:14;;;;;;;34.05;19.40;;;1.70;99.90;;;;;;5059225;28;20216;-49
2022/03/06 01:48:41;;;;;;;23.33;18.48;;;1.50;99.90;;;;;;5059495;28;20207;-55
2022/03/06 01:51:08;;;;;;;32.95;20.50;;;1.60;99.90;;;;;;5059348;28;20242;-48
2022/03/06 01:53:35;;;;;;;33.40;17.73;;;1.30;99.90;;;;;;5058899;28;20238;-51
2022/03/06 01:56:03;;;;;;;32.13;19.30;;;1.40;99.90;;;;;;5060162;28;20274;-50
2022/03/06 01:58:30;;;;;;;28.83;19.08;;;1.50;99.90;;;;;;5065704;28;20195;-47
2022/03/06 02:01:00;;;;;;;28.05;18.40;;;1.60;99.90;;;;;;5065741;28;20721;-49
2022/03/06 02:03:27;;;;;;;29.05;18.77;;;1.60;99.90;;;;;;5065691;28;20273;-50
2022/03/06 02:05:54;;;;;;;31.20;19.80;;;1.50;99.90;;;;;;5065660;28;20205;-47
2022/03/06 02:08:21;;;;;;;31.55;19.10;;;1.50;99.90;;;;;;5065349;28;20516;-50
2022/03/06 02:10:50;;;;;;;25.67;17.45;;;1.50;99.90;;;;;;5065604;28;20398;-49
2022/03/06 02:13:17;;;;;;;30.80;17.92;;;1.50;99.90;;;;;;5064187;28;20438;-50
2022/03/06 02:15:44;;;;;;;24.35;16.88;;;1.40;99.90;;;;;;5045096;28;20204;-47
2022/03/06 02:18:12;;;;;;;33.83;20.55;;;1.20;99.90;;;;;;5045757;28;20440;-49
2022/03/06 02:20:39;;;;;;;27.50;16.35;;;1.10;99.90;;;;;;5044736;28;20207;-48
2022/03/06 02:23:06;;;;;;;26.33;17.38;;;1.30;99.90;;;;;;5045512;28;20419;-49
2022/03/06 02:25:35;;;;;;;30.10;18.02;;;1.30;99.90;;;;;;5045631;28;20480;-50
2022/03/06 02:28:06;;;;;;;26.02;16.85;;;1.20;99.90;;;;;;5045522;28;20225;-48
2022/03/06 02:30:37;;;;;;;24.40;16.63;;;1.20;99.90;;;;;;5045788;28;20238;-49
2022/03/06 02:33:07;;;;;;;24.88;16.83;;;1.20;99.90;;;;;;5045517;28;20547;-47
2022/03/06 02:35:35;;;;;;;27.70;17.70;;;1.20;99.90;;;;;;5046520;28;20644;-45
2022/03/06 02:38:03;;;;;;;24.65;15.07;;;1.40;99.90;;;;;;5045647;28;20258;-48
2022/03/06 02:40:37;;;;;;;31.15;16.65;;;1.40;99.90;;;;;;5046403;28;20199;-47
2022/03/06 02:43:05;;;;;;;22.50;15.68;;;1.30;99.90;;;;;;5045385;28;20410;-47
2022/03/06 02:45:32;;;;;;;30.15;18.50;;;1.50;99.90;;;;;;5045820;28;20204;-50
2022/03/06 02:48:00;;;;;;;30.48;15.73;;;1.50;99.90;;;;;;5044741;28;20216;-47
2022/03/06 02:50:29;;;;;;;29.45;16.13;;;1.40;99.90;;;;;;5046040;28;20204;-48
2022/03/06 02:52:58;;;;;;;24.15;15.15;;;1.40;99.90;;;;;;5045689;28;20501;-47
2022/03/06 02:55:25;;;;;;;29.05;16.00;;;1.50;99.90;;;;;;5046047;28;20294;-50
2022/03/06 02:57:53;;;;;;;21.08;14.75;;;1.40;99.90;;;;;;5045541;28;20204;-49
2022/03/06 03:00:22;;;;;;;24.77;15.05;;;1.50;99.90;;;;;;5045211;28;20443;-49
2022/03/06 03:02:50;;;;;;;33.38;17.45;;;1.50;99.90;;;;;;5045530;28;20620;-48
2022/03/06 03:05:18;;;;;;;23.70;17.60;;;1.40;99.90;;;;;;5045463;28;20204;-52
2022/03/06 03:07:48;;;;;;;24.15;15.32;;;1.40;99.90;;;;;;5044161;28;20259;-52
2022/03/06 03:10:18;;;;;;;23.90;14.05;;;1.60;99.90;;;;;;5041845;28;20204;-49
2022/03/06 03:12:46;;;;;;;24.30;16.63;;;1.70;99.90;;;;;;5041855;28;20220;-53
2022/03/06 03:15:14;;;;;;;26.50;15.07;;;1.70;99.90;;;;;;5042378;28;20511;-46
2022/03/06 03:17:42;;;;;;;21.95;15.57;;;1.60;99.90;;;;;;5042250;28;20246;-49
2022/03/06 03:20:10;;;;;;;24.00;17.08;;;1.60;99.90;;;;;;5042047;28;20235;-49
2022/03/06 03:22:37;;;;;;;30.20;14.18;;;1.70;99.90;;;;;;5041691;28;20262;-49
2022/03/06 03:25:05;;;;;;;21.92;14.25;;;1.70;99.90;;;;;;5040419;28;20200;-50
2022/03/06 03:27:33;;;;;;;26.35;16.05;;;1.50;99.90;;;;;;5041453;28;20278;-50
2022/03/06 03:30:00;;;;;;;33.80;15.48;;;1.40;99.90;;;;;;5041912;28;20200;-48
2022/03/06 03:32:27;;;;;;;27.38;14.80;;;1.40;99.90;;;;;;5041584;28;20566;-50
2022/03/06 03:34:54;;;;;;;21.00;14.70;;;1.20;99.90;;;;;;5041539;28;20318;-49
2022/03/06 03:37:21;;;;;;;23.10;15.15;;;1.20;99.90;;;;;;5041693;28;20200;-54
2022/03/06 03:39:48;;;;;;;18.20;13.40;;;1.20;99.90;;;;;;5041548;28;20278;-51
2022/03/06 03:42:15;;;;;;;22.25;13.95;;;1.10;99.90;;;;;;5041506;28;20389;-51
2022/03/06 03:44:42;;;;;;;20.25;15.15;;;1.00;99.90;;;;;;5041642;28;20192;-52
2022/03/06 03:47:09;;;;;;;25.00;16.58;;;1.00;99.90;;;;;;5041687;28;20254;-50
2022/03/06 03:49:37;;;;;;;25.52;17.52;;;0.90;99.90;;;;;;5041250;28;20275;-49
2022/03/06 03:52:04;;;;;;;19.98;13.23;;;0.90;99.90;;;;;;5041085;28;20464;-50
2022/03/06 03:54:31;;;;;;;25.42;14.82;;;1.00;99.90;;;;;;5040765;28;20196;-51
2022/03/06 03:56:58;;;;;;;30.35;19.88;;;1.00;99.90;;;;;;5041359;28;20204;-47
2022/03/06 03:59:25;;;;;;;18.73;14.88;;;1.00;99.90;;;;;;5041330;28;20204;-51
2022/03/06 04:01:52;;;;;;;30.33;16.65;;;1.10;99.90;;;;;;5041040;28;20286;-45
2022/03/06 04:04:19;;;;;;;30.73;17.02;;;1.20;99.90;;;;;;5040238;28;20204;-49
2022/03/06 04:06:47;;;;;;;23.05;15.77;;;1.20;99.90;;;;;;5040675;28;20224;-48
2022/03/06 04:09:14;;;;;;;25.33;15.20;;;1.30;99.90;;;;;;5041049;28;20200;-46
2022/03/06 04:11:41;;;;;;;22.20;15.45;;;1.30;99.90;;;;;;5040489;28;20597;-52
2022/03/06 04:14:08;;;;;;;28.73;16.33;;;1.20;99.90;;;;;;5040792;28;20231;-48
2022/03/06 04:16:35;;;;;;;22.80;14.20;;;1.10;99.90;;;;;;5041381;28;20200;-49
2022/03/06 04:19:04;;;;;;;27.42;15.73;;;1.00;99.90;;;;;;5040723;28;20207;-48
2022/03/06 04:21:31;;;;;;;28.48;17.73;;;0.90;99.90;;;;;;5039754;28;20288;-48
2022/03/06 04:23:58;;;;;;;29.70;17.20;;;1.00;99.90;;;;;;5040039;28;20205;-49
2022/03/06 04:26:25;;;;;;;27.83;15.05;;;1.10;99.90;;;;;;5040964;28;20327;-48
2022/03/06 04:28:52;;;;;;;24.30;15.35;;;1.20;99.90;;;;;;5040490;28;20529;-52
2022/03/06 04:31:19;;;;;;;26.80;14.52;;;1.10;99.90;;;;;;5041183;28;20196;-47
2022/03/06 04:33:46;;;;;;;32.20;18.42;;;1.10;99.90;;;;;;5040975;28;20196;-47
2022/03/06 04:36:13;;;;;;;18.92;16.50;;;1.40;99.90;;;;;;5040866;28;20207;-50
2022/03/06 04:38:41;;;;;;;24.30;15.35;;;1.50;99.90;;;;;;5039294;28;20200;-49
2022/03/06 04:41:09;;;;;;;27.15;17.38;;;1.40;99.90;;;;;;5040440;28;20529;-45
2022/03/06 04:43:37;;;;;;;27.85;16.17;;;1.50;99.90;;;;;;5040634;28;20398;-47
2022/03/06 04:46:04;;;;;;;28.08;15.05;;;1.40;99.90;;;;;;5039996;28;20250;-49
2022/03/06 04:48:31;;;;;;;27.63;16.98;;;1.70;99.90;;;;;;5040245;28;20628;-46
2022/03/06 04:50:58;;;;;;;19.25;15.25;;;1.80;99.90;;;;;;5039584;28;20254;-49
2022/03/06 04:53:25;;;;;;;23.73;16.15;;;1.80;99.90;;;;;;5040061;28;20282;-50
2022/03/06 04:55:52;;;;;;;28.08;15.73;;;1.70;99.90;;;;;;5039474;28;20453;-51
2022/03/06 04:58:20;;;;;;;24.13;15.63;;;1.30;99.90;;;;;;5040234;28;20218;-48
2022/03/06 05:00:47;;;;;;;26.65;16.45;;;1.20;99.90;;;;;;5039847;28;20573;-47
2022/03/06 05:03:14;;;;;;;21.95;14.93;;;1.00;99.90;;;;;;5039847;28;20228;-50
2022/03/06 05:05:41;;;;;;;17.90;14.10;;;1.10;99.90;;;;;;5040326;28;20334;-50
2022/03/06 05:08:08;;;;;;;27.33;16.65;;;0.90;99.90;;;;;;5039664;28;20293;-49
2022/03/06 05:10:36;;;;;;;24.15;16.20;;;0.90;99.90;;;;;;5039788;28;20204;-49
2022/03/06 05:13:03;;;;;;;24.88;14.95;;;0.90;99.90;;;;;;5039239;28;20224;-51
2022/03/06 05:15:30;;;;;;;26.05;15.30;;;1.00;99.90;;;;;;5039845;28;20242;-48
2022/03/06 05:17:58;;;;;;;24.38;14.95;;;1.10;99.90;;;;;;5039279;28;20200;-49
2022/03/06 05:20:25;;;;;;;26.45;15.60;;;1.30;99.90;;;;;;5039827;28;20200;-50
2022/03/06 05:22:53;;;;;;;26.75;15.63;;;1.50;99.90;;;;;;5039327;28;20227;-45
2022/03/06 05:25:20;;;;;;;23.65;16.20;;;1.40;99.90;;;;;;5039762;28;20250;-45
2022/03/06 05:27:47;;;;;;;22.35;14.63;;;1.40;99.90;;;;;;5039845;28;20415;-50
2022/03/06 05:30:14;;;;;;;23.63;15.80;;;1.60;99.90;;;;;;5039453;28;20196;-46
2022/03/06 05:32:42;;;;;;;28.33;16.17;;;1.50;99.90;;;;;;5039739;28;20534;-50
2022/03/06 05:35:10;;;;;;;23.08;15.82;;;1.40;99.90;;;;;;5039247;28;20197;-46
2022/03/06 05:37:38;;;;;;;25.10;15.27;;;1.40;99.90;;;;;;5039756;28;20204;-46
2022/03/06 05:40:06;;;;;;;18.70;12.88;;;1.50;99.90;;;;;;5039099;28;20196;-48
2022/03/06 05:42:34;;;;;;;28.50;15.57;;;1.60;99.90;;;;;;5039524;28;20224;-49
2022/03/06 05:45:01;;;;;;;20.17;14.30;;;1.60;99.90;;;;;;5039103;28;20199;-45
2022/03/06 05:47:28;;;;;;;19.35;14.52;;;1.40;99.90;;;;;;5039433;28;20228;-48
2022/03/06 05:50:01;;;;;;;25.60;15.25;;;1.70;99.90;;;;;;5039752;28;20215;-48
2022/03/06 05:52:28;;;;;;;23.42;16.20;;;1.60;99.90;;;;;;5039547;28;20215;-44
2022/03/06 05:54:55;;;;;;;22.10;15.57;;;1.90;99.90;;;;;;5038996;28;20235;-49
2022/03/06 05:57:22;;;;;;;18.20;15.15;;;1.50;99.90;;;;;;5039080;28;20250;-45
2022/03/06 05:59:49;;;;;;;28.75;16.52;;;1.50;99.90;;;;;;5039102;28;20208;-44
2022/03/06 06:02:16;;;;;;;29.05;16.90;;;1.60;99.90;;;;;;5038990;28;20266;-47
2022/03/06 06:04:43;;;;;;;21.30;15.30;;;1.50;99.90;;;;;;5039562;28;20240;-48
2022/03/06 06:07:10;;;;;;;23.10;15.75;;;1.50;99.90;;;;;;5039400;28;20477;-49
2022/03/06 06:09:37;;;;;;;29.70;16.48;;;1.40;99.90;;;;;;5039121;28;20242;-48
2022/03/06 06:12:05;;;;;;;18.52;13.63;;;1.60;99.90;;;;;;5038863;28;20278;-47
2022/03/06 06:14:32;;;;;;;27.20;16.02;;;1.80;99.90;;;;;;5038975;28;20258;-49
2022/03/06 06:17:00;;;;;;;25.30;15.52;;;1.80;99.90;;;;;;5039136;28;20242;-49
2022/03/06 06:19:27;;;;;;;30.40;18.15;;;1.80;99.90;;;;;;5039347;28;20437;-46
2022/03/06 06:21:54;;;;;;;24.05;15.57;;;1.90;99.90;;;;;;5039821;28;20220;-49
2022/03/06 06:24:21;;;;;;;19.77;13.50;;;1.80;99.90;;;;;;5039304;28;20189;-48
2022/03/06 06:26:51;;;;;;;26.55;17.33;;;1.80;99.90;;;;;;5038966;28;20196;-50
2022/03/06 06:29:18;;;;;;;24.23;16.10;;;1.80;99.90;;;;;;5039167;28;20546;-46
2022/03/06 06:31:45;;;;;;;23.85;15.38;;;1.80;99.90;;;;;;5038774;28;20216;-49
2022/03/06 06:34:13;;;;;;;28.23;18.45;;;1.80;99.90;;;;;;5039176;28;20275;-51
2022/03/06 06:36:41;;;;;;;22.88;15.18;;;1.90;99.90;;;;;;5037886;28;20212;-46
2022/03/06 06:39:11;;;;;;;32.78;17.23;;;2.40;99.90;;;;;;5038794;28;20192;-50
2022/03/06 06:41:39;;;;;;;25.58;16.20;;;2.30;99.90;;;;;;5038640;28;20419;-48
2022/03/06 06:44:08;;;;;;;30.35;16.83;;;2.10;99.90;;;;;;5040498;28;20534;-46
2022/03/06 06:46:35;;;;;;;26.30;15.60;;;1.90;99.90;;;;;;5042926;28;20518;-47
2022/03/06 06:49:03;;;;;;;20.52;15.05;;;1.70;99.90;;;;;;5042052;28;20216;-50
2022/03/06 06:51:30;;;;;;;27.15;16.23;;;1.60;99.90;;;;;;5042619;28;20250;-49
2022/03/06 06:53:58;;;;;;;24.13;15.38;;;1.60;99.90;;;;;;5041844;28;20200;-47
2022/03/06 06:56:25;;;;;;;29.67;14.50;;;1.70;99.90;;;;;;5042245;28;20196;-51
2022/03/06 06:58:52;;;;;;;27.00;13.63;;;1.90;99.90;;;;;;5041634;28;20204;-46
2022/03/06 07:01:19;;;;;;;20.58;13.25;;;1.90;99.90;;;;;;5042362;28;20247;-46
2022/03/06 07:03:46;;;;;;;18.95;11.32;;;2.10;99.90;;;;;;5042335;28;20271;-49
2022/03/06 07:06:14;;;;;;;20.48;12.98;;;2.10;99.90;;;;;;5042184;28;20200;-50
2022/03/06 07:08:41;;;;;;;21.60;13.90;;;1.90;99.90;;;;;;5050601;28;20250;-48
2022/03/06 07:11:09;;;;;;;20.15;12.98;;;2.00;99.90;;;;;;5052388;28;20200;-47
2022/03/06 07:13:36;;;;;;;21.10;12.15;;;2.10;99.90;;;;;;5049901;28;20211;-50
2022/03/06 07:16:03;;;;;;;17.73;11.98;;;2.20;99.90;;;;;;5060774;28;20246;-48
2022/03/06 07:18:30;;;;;;;22.38;13.13;;;2.20;99.90;;;;;;5061385;28;20341;-50
2022/03/06 07:20:57;;;;;;;22.15;11.40;;;2.30;99.90;;;;;;5060332;28;20201;-49
2022/03/06 07:23:24;;;;;;;19.98;12.27;;;2.50;99.90;;;;;;5050255;28;20435;-45
2022/03/06 07:25:51;;;;;;;15.77;12.20;;;2.20;99.90;;;;;;5048763;28;20201;-49
2022/03/06 07:28:19;;;;;;;22.80;14.23;;;2.10;99.90;;;;;;5046293;28;20232;-45
2022/03/06 07:30:48;;;;;;;20.02;14.38;;;2.30;99.90;;;;;;5059464;28;20204;-48
2022/03/06 07:33:15;;;;;;;22.08;13.27;;;2.30;99.90;;;;;;5051315;28;20254;-51
2022/03/06 07:35:42;;;;;;;21.17;14.07;;;2.30;99.90;;;;;;5058940;28;20251;-52
2022/03/06 07:38:09;;;;;;;21.58;14.75;;;2.60;99.90;;;;;;5060890;28;20269;-49
2022/03/06 07:40:36;;;;;;;20.88;13.60;;;2.50;99.90;;;;;;5058222;28;20200;-46
2022/03/06 07:43:03;;;;;;;18.55;11.25;;;2.60;99.90;;;;;;5051840;28;20228;-49
2022/03/06 07:45:30;;;;;;;19.55;12.95;;;2.80;99.90;;;;;;5049887;28;20330;-50
2022/03/06 07:47:57;;;;;;;19.85;13.25;;;3.00;99.90;;;;;;5057954;28;20263;-48
2022/03/06 07:50:26;;;;;;;19.33;12.55;;;3.10;99.90;;;;;;5046673;28;20220;-47
2022/03/06 07:52:56;;;;;;;22.73;11.35;;;3.20;99.90;;;;;;5058154;28;20535;-46
2022/03/06 07:55:23;;;;;;;19.55;11.90;;;3.10;99.90;;;;;;5059919;28;20485;-47
2022/03/06 07:57:50;;;;;;;19.48;11.82;;;3.30;99.90;;;;;;5057292;28;20200;-49
2022/03/06 08:00:17;;;;;;;19.45;12.40;;;3.40;99.90;;;;;;5057642;28;20206;-49
2022/03/06 08:02:45;;;;;;;18.92;13.18;;;3.40;99.90;;;;;;5059369;28;20559;-52
2022/03/06 08:05:13;;;;;;;20.38;12.68;;;3.50;99.90;;;;;;5060404;28;20210;-49
2022/03/06 08:07:40;;;;;;;13.80;10.82;;;3.80;99.90;;;;;;5060226;28;20249;-50
2022/03/06 08:10:08;;;;;;;17.20;13.15;;;3.90;99.90;;;;;;5060762;28;20202;-49
2022/03/06 08:12:36;;;;;;;22.52;13.23;;;4.10;99.90;;;;;;5060001;28;20245;-50
2022/03/06 08:15:04;;;;;;;16.15;10.90;;;3.80;99.90;;;;;;5059890;28;20214;-47
2022/03/06 08:17:32;;;;;;;19.10;12.13;;;3.30;99.90;;;;;;5052926;28;20220;-49
2022/03/06 08:19:59;;;;;;;20.67;11.55;;;3.20;99.90;;;;;;5060267;28;20198;-50
2022/03/06 08:22:26;;;;;;;16.30;10.35;;;3.10;99.90;;;;;;5059897;28;20301;-48
2022/03/06 08:24:54;;;;;;;23.05;13.75;;;3.10;99.90;;;;;;5059901;28;20438;-47
2022/03/06 08:27:21;;;;;;;19.83;11.48;;;3.10;99.90;;;;;;5060179;28;20205;-53
2022/03/06 08:29:49;;;;;;;17.95;12.90;;;3.10;99.90;;;;;;5056880;28;20331;-50
2022/03/06 08:32:17;;;;;;;21.50;12.50;;;3.30;99.90;;;;;;5041300;28;20220;-50
2022/03/06 08:34:45;;;;;;;17.10;12.32;;;3.40;99.90;;;;;;5046382;28;20515;-51
2022/03/06 08:37:12;;;;;;;18.98;12.80;;;3.50;99.90;;;;;;5048747;28;20197;-48
2022/03/06 08:39:40;;;;;;;19.23;11.48;;;3.40;99.90;;;;;;5052753;28;20205;-49
2022/03/06 08:42:08;;;;;;;19.27;11.77;;;3.50;99.90;;;;;;5053997;28;20544;-47
2022/03/06 08:44:35;;;;;;;14.65;10.13;;;3.70;99.90;;;;;;5049378;28;20213;-49
2022/03/06 08:47:03;;;;;;;17.35;12.38;;;3.80;99.90;;;;;;5054188;28;20220;-51
2022/03/06 08:49:31;;;;;;;16.70;11.77;;;3.80;99.90;;;;;;5054036;28;20228;-50
2022/03/06 08:51:59;;;;;;;19.45;12.27;;;4.30;99.90;;;;;;5049015;28;20230;-48
2022/03/06 08:54:26;;;;;;;16.08;11.45;;;4.50;99.90;;;;;;5052252;28;20205;-47
2022/03/06 08:56:53;;;;;;;15.15;11.90;;;4.40;99.90;;;;;;5052026;28;20210;-49
2022/03/06 08:59:20;;;;;;;19.63;12.20;;;4.70;99.90;;;;;;5053559;28;20211;-47
2022/03/06 09:01:48;;;;;;;18.85;12.88;;;4.40;99.90;;;;;;5046720;28;20416;-47
2022/03/06 09:04:15;;;;;;;17.92;13.00;;;4.40;99.90;;;;;;5053400;28;20529;-43
2022/03/06 09:06:42;;;;;;;18.65;12.40;;;4.40;99.90;;;;;;5052290;28;20549;-45
2022/03/06 09:09:09;;;;;;;19.20;13.13;;;4.30;99.90;;;;;;5051993;28;20292;-47
2022/03/06 09:11:37;;;;;;;24.70;12.93;;;4.10;99.90;;;;;;5048867;28;20222;-47
2022/03/06 09:14:04;;;;;;;15.95;10.75;;;4.30;99.90;;;;;;5041833;28;20365;-47
2022/03/06 09:16:32;;;;;;;16.63;11.25;;;4.20;99.90;;;;;;5039490;28;20265;-46
2022/03/06 09:19:00;;;;;;;19.70;12.95;;;4.30;99.90;;;;;;5042164;28;20202;-45
2022/03/06 09:21:28;;;;;;;18.05;12.63;;;4.10;99.90;;;;;;5041917;28;20206;-48
2022/03/06 09:23:55;;;;;;;16.45;12.90;;;4.40;99.90;;;;;;5042833;28;20549;-46
2022/03/06 09:26:22;;;;;;;20.63;12.43;;;4.40;99.90;;;;;;5053559;28;20508;-47
2022/03/06 09:28:49;;;;;;;18.67;12.75;;;4.50;99.90;;;;;;5058256;28;20273;-51
2022/03/06 09:31:17;;;;;;;13.68;12.05;;;4.80;99.90;;;;;;5058420;28;20252;-47
2022/03/06 09:33:44;;;;;;;19.77;11.40;;;4.90;99.90;;;;;;5058385;28;20233;-47
2022/03/06 09:36:31;;;;;;;14.85;10.77;;;4.90;99.90;;;;;;5058061;28;20203;-45
2022/03/06 09:38:59;;;;;;;23.95;14.20;;;5.50;99.90;;;;;;5058252;28;20233;-46
2022/03/06 09:41:28;;;;;;;16.70;11.00;;;5.30;99.90;;;;;;5057241;28;20229;-51
2022/03/06 09:43:56;;;;;;;20.33;12.68;;;5.10;99.90;;;;;;5055249;28;20215;-45
2022/03/06 09:46:24;;;;;;;16.77;11.32;;;5.00;99.90;;;;;;5056382;28;20509;-45
2022/03/06 09:48:52;;;;;;;14.73;11.27;;;5.10;99.90;;;;;;5055389;28;20230;-50
2022/03/06 09:51:20;;;;;;;17.65;11.20;;;5.00;99.90;;;;;;5052684;28;20402;-47
2022/03/06 09:53:47;;;;;;;17.27;11.77;;;4.70;99.90;;;;;;5056179;28;20222;-47
2022/03/06 09:56:15;;;;;;;13.93;10.68;;;4.40;99.90;;;;;;5057430;28;20245;-47
2022/03/06 09:58:42;;;;;;;15.73;10.25;;;4.40;99.90;;;;;;5051774;28;20200;-50
2022/03/06 10:01:10;;;;;;;16.77;12.52;;;4.50;99.90;;;;;;5055858;28;20225;-48
2022/03/06 10:03:37;;;;;;;16.67;11.20;;;4.60;99.90;;;;;;5055820;28;20248;-45
2022/03/06 10:06:05;;;;;;;14.00;11.00;;;4.70;99.90;;;;;;5055136;28;20523;-48
2022/03/06 10:08:32;;;;;;;20.67;11.55;;;4.60;99.90;;;;;;5056360;28;20233;-48
2022/03/06 10:11:03;;;;;;;16.00;11.15;;;4.90;99.90;;;;;;5054790;28;20227;-44
2022/03/06 10:13:35;;;;;;;19.38;12.20;;;4.70;99.90;;;;;;5058058;28;20226;-44
2022/03/06 10:16:16;;;;;;;15.50;10.77;;;4.20;99.90;;;;;;5057619;28;20210;-45
2022/03/06 10:18:54;;;;;;;17.05;11.23;;;3.80;99.90;;;;;;5058376;28;20457;-49
2022/03/06 10:21:26;;;;;;;19.80;12.07;;;3.90;99.90;;;;;;5057895;28;20208;-45
2022/03/06 10:24:01;;;;;;;18.42;12.68;;;4.20;99.90;;;;;;5061069;28;20464;-49
2022/03/06 10:26:32;;;;;;;20.60;11.07;;;4.20;99.90;;;;;;5049776;28;20408;-48
2022/03/06 10:29:05;;;;;;;14.20;10.90;;;4.40;99.90;;;;;;5045295;28;20233;-47
2022/03/06 10:31:34;;;;;;;10.90;9.25;;;4.50;99.90;;;;;;5047579;28;20497;-48
2022/03/06 10:34:10;;;;;;;14.38;9.48;;;4.30;99.90;;;;;;5055246;28;20399;-45
2022/03/06 10:36:45;;;;;;;15.10;11.43;;;3.90;99.90;;;;;;5047567;28;20198;-50
2022/03/06 10:39:12;;;;;;;15.82;10.98;;;3.50;99.90;;;;;;5057689;28;20201;-48
2022/03/06 10:41:42;;;;;;;16.65;11.27;;;3.40;99.90;;;;;;5058225;28;20283;-48
2022/03/06 10:44:11;;;;;;;11.95;10.48;;;3.50;99.90;;;;;;5055835;28;20274;-50
2022/03/06 10:46:39;;;;;;;16.08;9.77;;;3.50;99.90;;;;;;5056139;28;20240;-44
2022/03/06 10:49:12;;;;;;;14.00;10.50;;;3.40;99.90;;;;;;5050533;28;20341;-44
2022/03/06 10:51:44;;;;;;;13.45;9.80;;;3.40;99.90;;;;;;5057720;28;20255;-47
2022/03/06 10:54:13;;;;;;;14.48;10.13;;;3.20;99.90;;;;;;5058254;28;20390;-47
2022/03/06 10:56:47;;;;;;;15.05;9.82;;;3.40;99.90;;;;;;5060451;28;20488;-46
2022/03/06 10:59:26;;;;;;;11.95;10.10;;;3.90;99.90;;;;;;5059719;28;20280;-51
2022/03/06 11:01:53;;;;;;;16.25;10.48;;;3.60;99.90;;;;;;5060946;28;20227;-48
2022/03/06 11:04:21;;;;;;;11.93;8.80;;;3.70;99.90;;;;;;5061410;28;20240;-48
2022/03/06 11:06:51;;;;;;;16.77;9.98;;;3.80;99.90;;;;;;5061746;28;20400;-48
2022/03/06 11:09:18;;;;;;;11.15;8.23;;;3.80;99.90;;;;;;5053754;28;20386;-45
2022/03/06 11:11:48;;;;;;;15.30;9.93;;;3.80;99.90;;;;;;5061188;28;20230;-45
2022/03/06 11:14:15;;;;;;;13.05;9.55;;;3.70;99.90;;;;;;5050060;28;20531;-48
2022/03/06 11:16:42;;;;;;;17.98;12.80;;;3.50;99.90;;;;;;5056479;28;20202;-46
2022/03/06 11:19:10;;;;;;;16.75;11.10;;;3.60;99.90;;;;;;5050125;28;20393;-48
2022/03/06 11:21:46;;;;;;;14.30;10.60;;;3.70;99.90;;;;;;5050795;28;20226;-51
2022/03/06 11:24:21;;;;;;;16.65;11.35;;;3.70;99.90;;;;;;5061479;28;20437;-46
2022/03/06 11:27:01;;;;;;;16.25;11.63;;;3.90;99.90;;;;;;5060868;28;20549;-46
2022/03/06 11:30:00;;;;;;;17.10;11.38;;;3.70;99.90;;;;;;5051374;28;20232;-44
2022/03/06 11:32:29;;;;;;;16.55;11.68;;;3.60;99.90;;;;;;5056555;28;20370;-45
2022/03/06 11:35:03;;;;;;;17.42;11.10;;;3.40;99.90;;;;;;5042878;28;20201;-47
2022/03/06 11:37:48;;;;;;;19.90;13.27;;;3.20;99.90;;;;;;5044295;28;20212;-49
2022/03/06 11:40:39;;;;;;;14.80;10.38;;;3.20;99.90;;;;;;5033323;28;20226;-46
2022/03/06 11:43:09;;;;;;;21.73;12.98;;;3.40;99.90;;;;;;5038341;28;20233;-46
2022/03/06 11:45:48;;;;;;;13.38;10.43;;;3.50;99.90;;;;;;5037281;28;20203;-48
2022/03/06 11:48:33;;;;;;;19.67;10.57;;;3.70;99.90;;;;;;5040504;28;20437;-46
2022/03/06 11:51:21;;;;;;;16.88;11.63;;;3.60;99.90;;;;;;5053811;28;20393;-45
2022/03/06 11:53:48;;;;;;;20.42;12.52;;;3.50;99.90;;;;;;5041925;28;20198;-45
2022/03/06 11:56:31;;;;;;;16.00;11.02;;;3.50;99.90;;;;;;5044124;28;20202;-47
2022/03/06 11:59:11;;;;;;;13.70;9.48;;;3.50;99.90;;;;;;5052512;28;20534;-46
2022/03/06 12:01:52;;;;;;;20.02;10.90;;;3.40;99.90;;;;;;5057939;28;20236;-51
2022/03/06 12:04:29;;;;;;;15.32;9.07;;;3.50;99.90;;;;;;5051668;28;20240;-47
2022/03/06 12:06:59;;;;;;;12.23;9.00;;;3.40;99.90;;;;;;5049214;28;20201;-45
2022/03/06 12:09:29;;;;;;;14.43;9.55;;;3.30;99.90;;;;;;5053328;28;20579;-47
2022/03/06 12:11:59;;;;;;;10.27;8.20;;;3.30;99.90;;;;;;5057278;28;20450;-47
2022/03/06 12:14:47;;;;;;;14.07;9.68;;;3.30;99.90;;;;;;5059563;28;20201;-46
2022/03/06 12:17:14;;;;;;;17.52;9.20;;;3.20;99.90;;;;;;5055968;28;20532;-43
2022/03/06 12:19:44;;;;;;;16.58;9.95;;;3.20;99.90;;;;;;5059326;28;20476;-44
2022/03/06 12:22:19;;;;;;;16.63;10.82;;;3.40;99.90;;;;;;5058279;28;20230;-48
2022/03/06 12:24:49;;;;;;;14.80;11.43;;;3.50;99.90;;;;;;5059868;28;20201;-47
2022/03/06 12:27:18;;;;;;;17.55;11.00;;;3.50;99.90;;;;;;5056573;28;20217;-45
2022/03/06 12:29:47;;;;;;;19.00;11.43;;;3.30;99.90;;;;;;5057439;28;20248;-50
2022/03/06 12:32:27;;;;;;;20.70;11.75;;;3.30;99.90;;;;;;5054395;28;20582;-46
2022/03/06 12:34:57;;;;;;;17.33;13.00;;;3.30;99.90;;;;;;5050713;28;20260;-47
2022/03/06 12:37:26;;;;;;;21.88;12.88;;;3.10;99.90;;;;;;5055101;28;20568;-50
2022/03/06 12:39:54;;;;;;;14.95;10.23;;;3.10;99.90;;;;;;5054355;28;20256;-44
2022/03/06 12:42:33;;;;;;;16.02;12.25;;;3.30;99.90;;;;;;5052918;28;20225;-45
2022/03/06 12:45:04;;;;;;;13.25;10.73;;;3.20;99.90;;;;;;5042541;28;20204;-46